createdAt,value
2023-03-11T00:01:08.066Z,11.46
2023-03-11T00:03:35.010Z,11.63
2023-03-11T00:06:05.135Z,11.45
2023-03-11T00:08:33.404Z,11.48
2023-03-11T00:11:00.929Z,11.60
2023-03-11T00:13:31.444Z,11.50
2023-03-11T00:16:04.575Z,11.40
2023-03-11T00:18:31.856Z,11.30
2023-03-11T00:21:00.309Z,11.62
2023-03-11T00:23:28.154Z,11.75
2023-03-11T00:25:55.263Z,11.82
2023-03-11T00:28:34.351Z,11.84
2023-03-11T00:31:04.443Z,11.68
2023-03-11T00:33:31.818Z,11.72
2023-03-11T00:35:58.725Z,11.63
2023-03-11T00:38:25.636Z,11.86
2023-03-11T00:40:52.624Z,11.91
2023-03-11T00:43:19.555Z,11.94
2023-03-11T00:45:46.790Z,11.87
2023-03-11T00:48:14.716Z,11.99
2023-03-11T00:50:42.061Z,12.17
2023-03-11T00:53:14.041Z,11.93
2023-03-11T00:55:40.989Z,11.92
2023-03-11T00:58:14.132Z,11.96
2023-03-11T01:00:42.316Z,12.16
2023-03-11T01:03:10.011Z,11.92
2023-03-11T01:05:37.959Z,11.87
2023-03-11T01:08:07.793Z,11.91
2023-03-11T01:10:35.787Z,11.89
2023-03-11T01:13:04.606Z,11.70
2023-03-11T01:15:37.339Z,11.50
2023-03-11T01:18:05.947Z,11.76
2023-03-11T01:20:41.938Z,11.74
2023-03-11T01:23:09.784Z,11.71
2023-03-11T01:25:37.177Z,11.95
2023-03-11T01:28:04.860Z,10.64
2023-03-11T01:30:31.745Z,11.44
2023-03-11T01:32:59.019Z,11.44
2023-03-11T01:35:28.020Z,11.75
2023-03-11T01:37:55.153Z,11.94
2023-03-11T01:40:29.541Z,11.85
2023-03-11T01:42:59.393Z,11.96
2023-03-11T01:45:29.183Z,12.00
2023-03-11T01:47:56.292Z,11.86
2023-03-11T01:50:27.568Z,12.01
2023-03-11T01:52:54.786Z,11.88
2023-03-11T01:55:22.318Z,11.78
2023-03-11T01:57:54.019Z,12.10
2023-03-11T02:00:21.797Z,11.60
2023-03-11T02:02:58.714Z,11.45
2023-03-11T02:05:28.964Z,11.54
2023-03-11T02:07:56.341Z,11.54
2023-03-11T02:10:23.386Z,11.66
2023-03-11T02:12:51.714Z,11.65
2023-03-11T02:15:19.007Z,11.51
2023-03-11T02:17:49.189Z,11.70
2023-03-11T02:20:52.681Z,11.68
2023-03-11T02:23:25.507Z,11.71
2023-03-11T02:26:15.757Z,11.71
2023-03-11T02:28:43.930Z,11.13
2023-03-11T02:31:16.353Z,11.82
2023-03-11T02:33:53.298Z,11.75
2023-03-11T02:36:41.113Z,11.99
2023-03-11T02:39:09.306Z,11.96
2023-03-11T02:41:40.502Z,12.02
2023-03-11T02:44:10.951Z,11.99
2023-03-11T02:46:41.907Z,12.14
2023-03-11T02:49:10.985Z,12.03
2023-03-11T02:51:37.848Z,12.21
2023-03-11T02:54:16.846Z,12.15
2023-03-11T02:56:44.113Z,10.37
2023-03-11T02:59:11.380Z,10.50
2023-03-11T03:01:38.440Z,10.85
2023-03-11T03:04:06.038Z,10.57
2023-03-11T03:06:33.312Z,10.46
2023-03-11T03:09:00.405Z,10.73
2023-03-11T03:11:46.600Z,10.52
2023-03-11T03:14:13.633Z,9.59
2023-03-11T03:16:45.166Z,10.06
2023-03-11T03:19:17.093Z,10.30
2023-03-11T03:21:50.020Z,10.36
2023-03-11T03:24:21.561Z,10.20
2023-03-11T03:26:49.086Z,10.82
2023-03-11T03:29:16.135Z,11.24
2023-03-11T03:31:43.114Z,10.85
2023-03-11T03:34:10.453Z,10.49
2023-03-11T03:36:37.438Z,9.20
2023-03-11T03:39:09.722Z,8.76
2023-03-11T03:41:37.181Z,9.06
2023-03-11T03:44:24.734Z,8.93
2023-03-11T03:46:52.090Z,9.48
2023-03-11T03:49:19.396Z,10.14
2023-03-11T03:51:46.390Z,9.03
2023-03-11T03:54:13.357Z,8.73
2023-03-11T03:56:40.337Z,9.09
2023-03-11T03:59:07.399Z,8.47
2023-03-11T04:01:34.297Z,8.95
2023-03-11T04:04:01.320Z,8.70
2023-03-11T04:06:28.693Z,8.85
2023-03-11T04:08:55.877Z,9.93
2023-03-11T04:11:25.366Z,9.34
2023-03-11T04:13:52.299Z,9.92
2023-03-11T04:16:23.205Z,10.20
2023-03-11T04:18:51.570Z,10.00
2023-03-11T04:21:18.648Z,10.54
2023-03-11T04:23:45.788Z,10.48
2023-03-11T04:26:13.735Z,10.87
2023-03-11T04:28:41.521Z,11.00
2023-03-11T04:31:09.209Z,11.08
2023-03-11T04:33:56.196Z,11.09
2023-03-11T04:36:28.366Z,11.05
2023-03-11T04:39:01.351Z,11.16
2023-03-11T04:41:29.297Z,10.90
2023-03-11T04:43:56.317Z,10.58
2023-03-11T04:46:23.947Z,10.61
2023-03-11T04:48:53.152Z,9.96
2023-03-11T04:51:20.131Z,8.79
2023-03-11T04:53:47.672Z,8.91
2023-03-11T04:56:15.290Z,9.53
2023-03-11T04:58:42.850Z,8.68
2023-03-11T05:01:14.524Z,8.82
2023-03-11T05:03:42.060Z,9.06
2023-03-11T05:06:10.381Z,8.37
2023-03-11T05:08:37.482Z,8.55
2023-03-11T05:11:05.887Z,8.26
2023-03-11T05:13:34.210Z,8.35
2023-03-11T05:16:21.427Z,8.51
2023-03-11T05:18:51.472Z,8.96
2023-03-11T05:21:38.610Z,8.62
2023-03-11T05:24:05.791Z,8.85
2023-03-11T05:26:32.961Z,9.02
2023-03-11T05:29:00.140Z,8.99
2023-03-11T05:31:27.419Z,9.16
2023-03-11T05:33:59.070Z,8.96
2023-03-11T05:36:26.764Z,8.92
2023-03-11T05:38:54.302Z,8.79
2023-03-11T05:41:21.645Z,8.41
2023-03-11T05:43:49.957Z,8.66
2023-03-11T05:46:17.101Z,8.49
2023-03-11T05:48:47.658Z,8.41
2023-03-11T05:51:14.876Z,8.48
2023-03-11T05:53:48.973Z,8.55
2023-03-11T05:56:17.335Z,8.58
2023-03-11T05:58:45.596Z,9.06
2023-03-11T06:01:19.987Z,8.57
2023-03-11T06:03:51.676Z,8.74
2023-03-11T06:06:22.422Z,8.61
2023-03-11T06:08:53.584Z,8.91
2023-03-11T06:11:21.775Z,8.98
2023-03-11T06:13:48.984Z,8.72
2023-03-11T06:16:16.714Z,8.97
2023-03-11T06:18:44.105Z,8.84
2023-03-11T06:21:22.534Z,8.67
2023-03-11T06:23:54.174Z,9.24
2023-03-11T06:26:28.552Z,8.68
2023-03-11T06:28:57.841Z,8.67
2023-03-11T06:31:27.896Z,8.59
2023-03-11T06:33:59.940Z,8.72
2023-03-11T06:36:29.691Z,8.21
2023-03-11T06:38:57.450Z,8.05
2023-03-11T06:41:32.511Z,8.58
2023-03-11T06:44:00.667Z,8.60
2023-03-11T06:46:28.094Z,8.35
2023-03-11T06:48:57.308Z,8.30
2023-03-11T06:51:25.691Z,8.22
2023-03-11T06:53:53.751Z,8.79
2023-03-11T06:56:24.429Z,8.88
2023-03-11T06:58:51.751Z,9.05
2023-03-11T07:01:22.907Z,9.30
2023-03-11T07:03:52.871Z,9.15
2023-03-11T07:06:24.970Z,9.05
2023-03-11T07:08:53.636Z,8.77
2023-03-11T07:11:23.714Z,8.96
2023-03-11T07:13:51.455Z,9.39
2023-03-11T07:16:38.043Z,9.36
2023-03-11T07:19:05.200Z,9.09
2023-03-11T07:21:33.122Z,9.32
2023-03-11T07:24:07.133Z,9.35
2023-03-11T07:26:37.009Z,9.29
2023-03-11T07:29:04.732Z,8.94
2023-03-11T07:31:33.861Z,8.47
2023-03-11T07:34:05.306Z,8.40
2023-03-11T07:36:32.987Z,8.31
2023-03-11T07:39:05.133Z,8.28
2023-03-11T07:41:39.112Z,8.58
2023-03-11T07:44:09.857Z,8.29
2023-03-11T07:46:37.513Z,8.39
2023-03-11T07:49:04.967Z,8.90
2023-03-11T07:51:35.164Z,8.86
2023-03-11T07:54:03.251Z,8.73
2023-03-11T07:56:33.020Z,9.22
2023-03-11T07:59:01.404Z,9.06
2023-03-11T08:01:37.744Z,8.89
2023-03-11T08:04:07.405Z,9.21
2023-03-11T08:06:38.037Z,8.63
2023-03-11T08:09:09.533Z,8.67
2023-03-11T08:11:37.261Z,8.80
2023-03-11T08:14:04.812Z,8.69
2023-03-11T08:16:32.073Z,9.05
2023-03-11T08:19:02.145Z,8.68
2023-03-11T08:21:35.113Z,9.14
2023-03-11T08:24:07.740Z,9.29
2023-03-11T08:26:34.737Z,9.21
2023-03-11T08:29:02.844Z,9.23
2023-03-11T08:31:32.704Z,9.51
2023-03-11T08:34:01.582Z,9.73
2023-03-11T08:36:29.535Z,9.85
2023-03-11T08:38:58.758Z,9.69
2023-03-11T08:41:26.239Z,9.78
2023-03-11T08:43:54.351Z,9.25
2023-03-11T08:46:33.554Z,9.71
2023-03-11T08:49:01.708Z,10.00
2023-03-11T08:51:30.450Z,10.43
2023-03-11T08:53:58.007Z,10.22
2023-03-11T08:56:26.662Z,10.48
2023-03-11T08:58:53.893Z,10.77
2023-03-11T09:01:21.024Z,10.91
2023-03-11T09:03:48.170Z,11.05
2023-03-11T09:06:19.531Z,10.87
2023-03-11T09:08:52.785Z,10.98
2023-03-11T09:11:23.093Z,10.97
2023-03-11T09:13:50.469Z,10.98
2023-03-11T09:16:23.391Z,11.82
2023-03-11T09:18:51.654Z,11.36
2023-03-11T09:21:20.452Z,11.77
2023-03-11T09:23:48.818Z,11.42
2023-03-11T09:26:16.367Z,11.92
2023-03-11T09:28:43.600Z,12.60
2023-03-11T09:31:10.790Z,12.98
2023-03-11T09:33:40.878Z,12.29
2023-03-11T09:36:12.667Z,12.34
2023-03-11T09:38:39.932Z,13.02
2023-03-11T09:41:23.683Z,12.64
2023-03-11T09:43:53.666Z,12.77
2023-03-11T09:46:29.812Z,13.42
2023-03-11T09:49:05.867Z,13.14
2023-03-11T09:51:43.907Z,13.01
2023-03-11T09:54:13.285Z,13.39
2023-03-11T09:56:44.540Z,13.34
2023-03-11T09:59:22.194Z,13.22
2023-03-11T10:01:51.665Z,13.98
2023-03-11T10:04:50.473Z,13.49
2023-03-11T10:07:22.549Z,13.84
2023-03-11T10:09:57.134Z,13.68
2023-03-11T10:12:57.514Z,13.47
2023-03-11T10:15:48.933Z,13.40
2023-03-11T10:18:37.482Z,13.62
2023-03-11T10:21:41.044Z,13.00
2023-03-11T10:24:46.151Z,12.98
2023-03-11T10:27:20.726Z,12.76
2023-03-11T10:30:26.359Z,12.14
2023-03-11T10:33:19.605Z,12.79
2023-03-11T10:35:53.067Z,12.79
2023-03-11T10:38:52.622Z,12.97
2023-03-11T10:41:49.892Z,12.44
2023-03-11T10:44:24.256Z,13.11
2023-03-11T10:46:51.382Z,12.59
2023-03-11T10:49:18.632Z,13.12
2023-03-11T10:51:49.693Z,12.82
2023-03-11T10:54:27.272Z,13.15
2023-03-11T10:57:26.557Z,12.89
2023-03-11T11:00:00.612Z,12.99
2023-03-11T11:02:50.161Z,13.05
2023-03-11T11:05:22.831Z,13.23
2023-03-11T11:08:26.611Z,13.97
2023-03-11T11:10:59.803Z,13.68
2023-03-11T11:13:34.805Z,13.48
2023-03-11T11:16:07.680Z,13.18
2023-03-11T11:18:42.897Z,12.26
2023-03-11T11:21:34.145Z,11.60
2023-03-11T11:24:12.725Z,13.02
2023-03-11T11:26:39.763Z,13.22
2023-03-11T11:29:09.024Z,13.49
2023-03-11T11:31:40.067Z,13.52
2023-03-11T11:34:29.801Z,13.13
2023-03-11T11:37:18.472Z,13.10
2023-03-11T11:40:17.300Z,12.96
2023-03-11T11:42:59.438Z,12.88
2023-03-11T11:45:54.419Z,12.02
2023-03-11T11:48:41.664Z,12.14
2023-03-11T11:51:56.111Z,12.26
2023-03-11T11:54:33.831Z,12.15
2023-03-11T11:57:09.459Z,12.79
2023-03-11T11:59:36.482Z,12.62
2023-03-11T12:02:26.272Z,12.18
2023-03-11T12:05:33.911Z,12.50
2023-03-11T12:08:14.184Z,12.68
2023-03-11T12:10:58.904Z,12.52
2023-03-11T12:14:06.222Z,12.00
2023-03-11T12:16:57.693Z,11.89
2023-03-11T12:19:30.340Z,12.21
2023-03-11T12:22:36.850Z,12.30
2023-03-11T12:25:06.830Z,11.79
2023-03-11T12:27:58.718Z,11.77
2023-03-11T12:30:33.083Z,11.51
2023-03-11T12:33:05.417Z,11.75
2023-03-11T12:35:36.150Z,11.53
2023-03-11T12:38:16.213Z,11.90
2023-03-11T12:40:51.606Z,11.90
2023-03-11T12:43:47.620Z,11.47
2023-03-11T12:46:36.256Z,10.76
2023-03-11T12:49:15.146Z,11.31
2023-03-11T12:52:02.395Z,11.14
2023-03-11T12:54:33.570Z,10.88
2023-03-11T12:57:23.839Z,11.16
2023-03-11T13:00:17.949Z,12.15
2023-03-11T13:03:23.916Z,12.17
2023-03-11T13:06:25.077Z,12.54
2023-03-11T13:08:55.162Z,11.54
2023-03-11T13:11:34.211Z,11.17
2023-03-11T13:14:51.671Z,11.59
2023-03-11T13:17:32.612Z,11.74
2023-03-11T13:20:00.020Z,10.41
2023-03-11T13:23:05.629Z,10.69
2023-03-11T13:25:38.803Z,11.17
2023-03-11T13:28:14.631Z,11.02
2023-03-11T13:31:12.975Z,10.97
2023-03-11T13:33:50.012Z,11.37
2023-03-11T13:36:25.400Z,11.00
2023-03-11T13:38:58.964Z,10.59
2023-03-11T13:41:36.755Z,10.57
2023-03-11T13:44:23.067Z,10.89
2023-03-11T13:46:55.251Z,10.78
2023-03-11T13:49:48.465Z,11.05
2023-03-11T13:52:27.550Z,10.48
2023-03-11T13:55:15.321Z,10.73
2023-03-11T13:57:56.112Z,10.51
2023-03-11T14:00:26.338Z,10.92
2023-03-11T14:02:55.521Z,10.12
2023-03-11T14:05:37.926Z,10.84
2023-03-11T14:08:35.883Z,11.13
2023-03-11T14:11:15.173Z,11.32
2023-03-11T14:13:50.417Z,10.62
2023-03-11T14:16:35.657Z,10.50
2023-03-11T14:19:17.475Z,10.26
2023-03-11T14:21:46.838Z,9.86
2023-03-11T14:24:36.808Z,9.61
2023-03-11T14:27:10.695Z,9.55
2023-03-11T14:29:40.622Z,9.43
2023-03-11T14:32:27.378Z,9.20
2023-03-11T14:34:54.923Z,9.57
2023-03-11T14:37:39.278Z,9.43
2023-03-11T14:40:29.882Z,8.94
2023-03-11T14:43:04.084Z,8.91
2023-03-11T14:45:34.274Z,9.12
2023-03-11T14:48:14.504Z,8.99
2023-03-11T14:50:49.480Z,8.97
2023-03-11T14:53:20.242Z,8.89
2023-03-11T14:55:59.062Z,9.10
2023-03-11T14:58:41.780Z,9.18
2023-03-11T15:01:26.779Z,9.04
2023-03-11T15:04:08.211Z,9.00
2023-03-11T15:06:38.491Z,8.83
2023-03-11T15:09:08.389Z,8.39
2023-03-11T15:12:13.590Z,8.34
2023-03-11T15:14:51.145Z,8.34
2023-03-11T15:17:39.229Z,8.40
2023-03-11T15:20:31.466Z,8.19
2023-03-11T15:23:05.083Z,8.21
2023-03-11T15:25:39.009Z,8.16
2023-03-11T15:28:25.493Z,8.15
2023-03-11T15:31:21.489Z,7.84
2023-03-11T15:33:49.077Z,7.79
2023-03-11T15:36:27.996Z,8.39
2023-03-11T15:39:24.395Z,8.11
2023-03-11T15:42:06.593Z,7.78
2023-03-11T15:45:04.526Z,7.96
2023-03-11T15:47:31.861Z,7.74
2023-03-11T15:50:02.480Z,7.98
2023-03-11T15:52:29.387Z,7.82
2023-03-11T15:54:56.433Z,7.82
2023-03-11T15:57:36.769Z,7.79
2023-03-11T16:00:04.734Z,7.76
2023-03-11T16:02:32.816Z,8.05
2023-03-11T16:05:01.207Z,7.73
2023-03-11T16:07:39.283Z,8.04
2023-03-11T16:10:10.930Z,7.68
2023-03-11T16:12:38.186Z,7.62
2023-03-11T16:15:06.311Z,7.08
2023-03-11T16:17:48.902Z,6.94
2023-03-11T16:20:19.769Z,6.95
2023-03-11T16:22:48.196Z,7.35
2023-03-11T16:25:29.616Z,7.06
2023-03-11T16:28:00.607Z,6.80
2023-03-11T16:30:30.122Z,6.83
2023-03-11T16:32:59.449Z,6.82
2023-03-11T16:35:27.107Z,6.53
2023-03-11T16:37:54.762Z,6.47
2023-03-11T16:40:27.644Z,6.87
2023-03-11T16:43:02.913Z,6.48
2023-03-11T16:45:30.141Z,6.68
2023-03-11T16:47:57.233Z,6.53
2023-03-11T16:50:25.541Z,6.80
2023-03-11T16:52:54.365Z,6.63
2023-03-11T16:55:21.373Z,6.96
2023-03-11T16:57:48.404Z,6.66
2023-03-11T17:00:18.311Z,6.57
2023-03-11T17:02:45.357Z,6.61
2023-03-11T17:05:13.784Z,6.97
2023-03-11T17:07:43.204Z,6.96
2023-03-11T17:10:11.856Z,6.59
2023-03-11T17:12:39.117Z,6.35
2023-03-11T17:15:07.793Z,6.19
2023-03-11T17:17:34.756Z,6.98
2023-03-11T17:20:01.671Z,7.12
2023-03-11T17:22:30.667Z,7.09
2023-03-11T17:24:57.650Z,7.05
2023-03-11T17:27:24.589Z,6.79
2023-03-11T17:29:52.593Z,6.74
2023-03-11T17:32:21.692Z,6.47
2023-03-11T17:34:48.678Z,6.37
2023-03-11T17:37:15.621Z,6.32
2023-03-11T17:39:42.876Z,6.24
2023-03-11T17:42:09.932Z,7.11
2023-03-11T17:44:50.562Z,7.13
2023-03-11T17:47:21.905Z,6.10
2023-03-11T17:49:49.926Z,6.67
2023-03-11T17:52:17.572Z,6.63
2023-03-11T17:54:45.656Z,6.57
2023-03-11T17:57:14.055Z,6.60
2023-03-11T17:59:43.257Z,6.55
2023-03-11T18:02:14.700Z,6.78
2023-03-11T18:04:46.512Z,6.88
2023-03-11T18:07:13.664Z,6.75
2023-03-11T18:09:41.667Z,5.86
2023-03-11T18:12:11.010Z,6.00
2023-03-11T18:14:38.460Z,6.11
2023-03-11T18:17:05.969Z,6.22
2023-03-11T18:19:34.500Z,6.04
2023-03-11T18:22:01.638Z,6.01
2023-03-11T18:24:41.387Z,6.00
2023-03-11T18:27:11.308Z,6.26
2023-03-11T18:29:39.605Z,5.99
2023-03-11T18:32:11.243Z,6.06
2023-03-11T18:34:39.010Z,5.75
2023-03-11T18:37:26.894Z,6.38
2023-03-11T18:40:14.296Z,5.88
2023-03-11T18:42:42.180Z,6.00
2023-03-11T18:45:12.391Z,6.11
2023-03-11T18:47:39.437Z,6.20
2023-03-11T18:50:06.649Z,6.04
2023-03-11T18:52:33.550Z,5.80
2023-03-11T18:55:00.400Z,6.16
2023-03-11T18:57:27.401Z,5.91
2023-03-11T18:59:54.615Z,5.73
2023-03-11T19:02:21.566Z,5.85
2023-03-11T19:04:48.504Z,5.20
2023-03-11T19:07:15.526Z,5.39
2023-03-11T19:09:42.465Z,5.69
2023-03-11T19:12:09.891Z,5.80
2023-03-11T19:14:38.115Z,5.35
2023-03-11T19:17:06.234Z,4.98
2023-03-11T19:19:37.835Z,5.60
2023-03-11T19:22:06.103Z,5.64
2023-03-11T19:24:33.088Z,5.80
2023-03-11T19:27:02.507Z,5.78
2023-03-11T19:29:34.537Z,5.37
2023-03-11T19:32:03.551Z,5.24
2023-03-11T19:34:33.479Z,5.01
2023-03-11T19:37:00.482Z,5.03
2023-03-11T19:39:27.645Z,5.14
2023-03-11T19:41:55.749Z,5.66
2023-03-11T19:44:22.880Z,5.68
2023-03-11T19:46:50.161Z,5.79
2023-03-11T19:49:17.589Z,5.60
2023-03-11T19:51:50.180Z,5.31
2023-03-11T19:54:20.117Z,5.33
2023-03-11T19:56:49.027Z,5.17
2023-03-11T19:59:20.107Z,5.52
2023-03-11T20:01:47.841Z,5.69
2023-03-11T20:04:15.623Z,5.49
2023-03-11T20:06:44.892Z,5.88
2023-03-11T20:09:13.218Z,5.50
2023-03-11T20:11:42.327Z,6.09
2023-03-11T20:14:10.878Z,6.12
2023-03-11T20:16:41.068Z,6.06
2023-03-11T20:19:11.107Z,6.26
2023-03-11T20:21:43.887Z,6.20
2023-03-11T20:24:14.703Z,6.45
2023-03-11T20:26:43.977Z,6.02
2023-03-11T20:29:14.100Z,6.41
2023-03-11T20:31:41.260Z,6.33
2023-03-11T20:34:13.422Z,5.57
2023-03-11T20:36:40.699Z,5.83
2023-03-11T20:39:10.307Z,6.12
2023-03-11T20:41:41.562Z,6.28
2023-03-11T20:44:11.443Z,5.85
2023-03-11T20:46:38.278Z,5.44
2023-03-11T20:49:05.735Z,6.07
2023-03-11T20:51:32.984Z,5.89
2023-03-11T20:54:00.259Z,5.65
2023-03-11T20:56:27.781Z,6.11
2023-03-11T20:58:59.505Z,5.15
2023-03-11T21:01:36.874Z,5.83
2023-03-11T21:04:04.347Z,5.72
2023-03-11T21:06:37.266Z,5.41
2023-03-11T21:09:11.317Z,5.49
2023-03-11T21:11:39.233Z,5.71
2023-03-11T21:14:10.051Z,5.74
2023-03-11T21:16:40.164Z,5.81
2023-03-11T21:19:09.160Z,5.98
2023-03-11T21:21:36.690Z,5.78
2023-03-11T21:24:04.191Z,6.17
2023-03-11T21:26:31.518Z,6.22
2023-03-11T21:28:58.799Z,6.25
2023-03-11T21:31:29.783Z,6.31
2023-03-11T21:34:01.266Z,6.24
2023-03-11T21:36:29.715Z,6.64
2023-03-11T21:38:57.248Z,5.72
2023-03-11T21:41:27.046Z,5.84
2023-03-11T21:43:56.837Z,6.11
2023-03-11T21:46:33.413Z,6.24
2023-03-11T21:49:06.313Z,6.27
2023-03-11T21:51:34.239Z,6.40
2023-03-11T21:54:04.244Z,6.59
2023-03-11T21:56:32.591Z,6.76
2023-03-11T21:58:59.878Z,7.02
2023-03-11T22:01:26.971Z,6.88
2023-03-11T22:04:13.917Z,6.89
2023-03-11T22:06:41.760Z,6.82
2023-03-11T22:09:08.820Z,6.93
2023-03-11T22:11:38.038Z,6.90
2023-03-11T22:14:05.919Z,6.74
2023-03-11T22:16:33.643Z,6.87
2023-03-11T22:19:01.542Z,7.03
2023-03-11T22:21:28.844Z,7.05
2023-03-11T22:23:55.791Z,7.00
2023-03-11T22:26:28.349Z,6.85
2023-03-11T22:28:59.811Z,7.05
2023-03-11T22:31:27.409Z,6.98
2023-03-11T22:33:54.359Z,6.95
2023-03-11T22:36:21.444Z,6.92
2023-03-11T22:38:48.766Z,6.77
2023-03-11T22:41:19.904Z,6.93
2023-03-11T22:43:49.206Z,6.71
2023-03-11T22:46:17.163Z,6.76
2023-03-11T22:48:44.911Z,6.75
2023-03-11T22:51:12.043Z,6.50
2023-03-11T22:53:39.040Z,6.55
2023-03-11T22:56:13.031Z,6.60
2023-03-11T22:58:40.539Z,6.68
2023-03-11T23:01:09.071Z,6.69
2023-03-11T23:03:36.758Z,6.56
2023-03-11T23:06:07.378Z,6.44
2023-03-11T23:08:35.005Z,6.57
2023-03-11T23:11:04.359Z,6.45
2023-03-11T23:13:32.586Z,6.54
2023-03-11T23:16:08.342Z,6.36
2023-03-11T23:18:36.139Z,6.39
2023-03-11T23:21:03.218Z,6.44
2023-03-11T23:23:30.847Z,6.45
2023-03-11T23:25:57.968Z,6.55
2023-03-11T23:28:24.936Z,6.50
2023-03-11T23:30:51.963Z,6.30
2023-03-11T23:33:18.954Z,6.39
2023-03-11T23:35:45.878Z,6.33
2023-03-11T23:38:12.896Z,6.30
2023-03-11T23:40:41.351Z,6.29
2023-03-11T23:43:08.688Z,6.28
2023-03-11T23:45:35.749Z,6.28
2023-03-11T23:48:02.627Z,6.22
2023-03-11T23:50:29.657Z,6.00
2023-03-11T23:52:56.833Z,6.23
2023-03-11T23:55:23.808Z,6.31
2023-03-11T23:57:50.787Z,6.31
